sensor_id;sensor_type;location;lat;lon;timestamp;temperature;humidity
44047;DHT22;29713;-33.888;151.150;2023-04-29T00:01:35;19.60;99.90
44047;DHT22;29713;-33.888;151.150;2023-04-29T00:04:03;19.60;99.90
44047;DHT22;29713;-33.888;151.150;2023-04-29T00:06:30;19.70;99.90
44047;DHT22;29713;-33.888;151.150;2023-04-29T00:08:58;19.70;99.90
44047;DHT22;29713;-33.888;151.150;2023-04-29T00:11:25;19.70;99.90
44047;DHT22;29713;-33.888;151.150;2023-04-29T00:13:52;19.70;99.90
44047;DHT22;29713;-33.888;151.150;2023-04-29T00:16:20;19.70;99.90
44047;DHT22;29713;-33.888;151.150;2023-04-29T00:18:47;19.60;99.90
44047;DHT22;29713;-33.888;151.150;2023-04-29T00:21:15;19.60;99.90
44047;DHT22;29713;-33.888;151.150;2023-04-29T00:23:44;19.50;99.90
44047;DHT22;29713;-33.888;151.150;2023-04-29T00:26:11;19.50;99.90
44047;DHT22;29713;-33.888;151.150;2023-04-29T00:28:39;19.50;99.90
44047;DHT22;29713;-33.888;151.150;2023-04-29T00:31:06;19.50;99.90
44047;DHT22;29713;-33.888;151.150;2023-04-29T00:33:34;19.40;99.90
44047;DHT22;29713;-33.888;151.150;2023-04-29T00:36:01;19.40;99.90
44047;DHT22;29713;-33.888;151.150;2023-04-29T00:38:29;19.40;99.90
44047;DHT22;29713;-33.888;151.150;2023-04-29T00:40:56;19.50;99.90
44047;DHT22;29713;-33.888;151.150;2023-04-29T00:43:24;19.50;99.90
44047;DHT22;29713;-33.888;151.150;2023-04-29T00:45:51;19.50;99.90
44047;DHT22;29713;-33.888;151.150;2023-04-29T00:48:19;19.50;99.90
44047;DHT22;29713;-33.888;151.150;2023-04-29T00:50:47;19.50;99.90
44047;DHT22;29713;-33.888;151.150;2023-04-29T00:53:14;19.40;99.90
44047;DHT22;29713;-33.888;151.150;2023-04-29T00:55:43;19.50;99.90
44047;DHT22;29713;-33.888;151.150;2023-04-29T00:58:13;19.40;99.90
44047;DHT22;29713;-33.888;151.150;2023-04-29T01:00:44;19.40;99.90
44047;DHT22;29713;-33.888;151.150;2023-04-29T01:03:12;19.40;99.90
44047;DHT22;29713;-33.888;151.150;2023-04-29T01:05:40;19.40;99.90
44047;DHT22;29713;-33.888;151.150;2023-04-29T01:08:37;19.40;99.90
44047;DHT22;29713;-33.888;151.150;2023-04-29T01:11:11;19.40;99.90
44047;DHT22;29713;-33.888;151.150;2023-04-29T01:16:26;19.40;99.90
44047;DHT22;29713;-33.888;151.150;2023-04-29T01:18:57;19.40;99.90
44047;DHT22;29713;-33.888;151.150;2023-04-29T01:21:26;19.40;99.90
44047;DHT22;29713;-33.888;151.150;2023-04-29T01:23:56;19.40;99.90
44047;DHT22;29713;-33.888;151.150;2023-04-29T01:26:23;19.50;99.90
44047;DHT22;29713;-33.888;151.150;2023-04-29T01:31:57;19.50;99.90
44047;DHT22;29713;-33.888;151.150;2023-04-29T01:37:27;19.50;99.90
44047;DHT22;29713;-33.888;151.150;2023-04-29T01:40:15;19.40;99.90
44047;DHT22;29713;-33.888;151.150;2023-04-29T01:43:00;19.40;99.90
44047;DHT22;29713;-33.888;151.150;2023-04-29T01:45:30;19.40;99.90
44047;DHT22;29713;-33.888;151.150;2023-04-29T01:47:58;19.40;99.90
44047;DHT22;29713;-33.888;151.150;2023-04-29T01:50:27;19.40;99.90
44047;DHT22;29713;-33.888;151.150;2023-04-29T01:52:54;19.40;99.90
44047;DHT22;29713;-33.888;151.150;2023-04-29T01:55:22;19.40;99.90
44047;DHT22;29713;-33.888;151.150;2023-04-29T01:57:49;19.30;99.90
44047;DHT22;29713;-33.888;151.150;2023-04-29T02:00:17;19.30;99.90
44047;DHT22;29713;-33.888;151.150;2023-04-29T02:02:44;19.30;99.90
44047;DHT22;29713;-33.888;151.150;2023-04-29T02:05:12;19.30;99.90
44047;DHT22;29713;-33.888;151.150;2023-04-29T02:07:39;19.30;99.90
44047;DHT22;29713;-33.888;151.150;2023-04-29T02:10:08;19.30;99.90
44047;DHT22;29713;-33.888;151.150;2023-04-29T02:12:35;19.30;99.90
44047;DHT22;29713;-33.888;151.150;2023-04-29T02:15:03;19.20;99.90
44047;DHT22;29713;-33.888;151.150;2023-04-29T02:17:32;19.20;99.90
44047;DHT22;29713;-33.888;151.150;2023-04-29T02:19:59;19.20;99.90
44047;DHT22;29713;-33.888;151.150;2023-04-29T02:22:26;19.20;99.90
44047;DHT22;29713;-33.888;151.150;2023-04-29T02:24:54;19.20;99.90
44047;DHT22;29713;-33.888;151.150;2023-04-29T02:27:21;19.30;99.90
44047;DHT22;29713;-33.888;151.150;2023-04-29T02:29:49;19.30;99.90
44047;DHT22;29713;-33.888;151.150;2023-04-29T02:32:17;19.30;99.90
44047;DHT22;29713;-33.888;151.150;2023-04-29T02:34:46;19.20;99.90
44047;DHT22;29713;-33.888;151.150;2023-04-29T02:37:14;19.20;99.90
44047;DHT22;29713;-33.888;151.150;2023-04-29T02:39:42;19.20;99.90
44047;DHT22;29713;-33.888;151.150;2023-04-29T02:42:09;19.10;99.90
44047;DHT22;29713;-33.888;151.150;2023-04-29T02:44:36;19.00;99.90
44047;DHT22;29713;-33.888;151.150;2023-04-29T02:47:04;19.00;99.90
44047;DHT22;29713;-33.888;151.150;2023-04-29T02:49:31;19.10;99.90
44047;DHT22;29713;-33.888;151.150;2023-04-29T02:51:59;19.10;99.90
44047;DHT22;29713;-33.888;151.150;2023-04-29T02:54:26;19.20;99.90
44047;DHT22;29713;-33.888;151.150;2023-04-29T02:56:53;19.20;99.90
44047;DHT22;29713;-33.888;151.150;2023-04-29T02:59:21;19.30;99.90
44047;DHT22;29713;-33.888;151.150;2023-04-29T03:01:48;19.30;99.90
44047;DHT22;29713;-33.888;151.150;2023-04-29T03:04:15;19.30;99.90
44047;DHT22;29713;-33.888;151.150;2023-04-29T03:06:43;19.20;99.90
44047;DHT22;29713;-33.888;151.150;2023-04-29T03:09:10;19.20;99.90
44047;DHT22;29713;-33.888;151.150;2023-04-29T03:11:39;19.20;99.90
44047;DHT22;29713;-33.888;151.150;2023-04-29T03:14:06;19.20;99.90
44047;DHT22;29713;-33.888;151.150;2023-04-29T03:16:34;19.30;99.90
44047;DHT22;29713;-33.888;151.150;2023-04-29T03:19:01;19.20;99.90
44047;DHT22;29713;-33.888;151.150;2023-04-29T03:21:28;19.20;99.90
44047;DHT22;29713;-33.888;151.150;2023-04-29T03:23:56;19.20;99.90
44047;DHT22;29713;-33.888;151.150;2023-04-29T03:26:23;19.10;99.90
44047;DHT22;29713;-33.888;151.150;2023-04-29T03:28:51;19.10;99.90
44047;DHT22;29713;-33.888;151.150;2023-04-29T03:31:19;19.00;99.90
44047;DHT22;29713;-33.888;151.150;2023-04-29T03:33:48;19.00;99.90
44047;DHT22;29713;-33.888;151.150;2023-04-29T03:36:16;18.90;99.90
44047;DHT22;29713;-33.888;151.150;2023-04-29T03:38:43;18.90;99.90
44047;DHT22;29713;-33.888;151.150;2023-04-29T03:41:11;19.00;99.90
44047;DHT22;29713;-33.888;151.150;2023-04-29T03:43:38;19.00;99.90
44047;DHT22;29713;-33.888;151.150;2023-04-29T03:46:06;19.10;99.90
44047;DHT22;29713;-33.888;151.150;2023-04-29T03:48:33;19.10;99.90
44047;DHT22;29713;-33.888;151.150;2023-04-29T03:51:00;19.10;99.90
44047;DHT22;29713;-33.888;151.150;2023-04-29T03:53:28;19.20;99.90
44047;DHT22;29713;-33.888;151.150;2023-04-29T03:55:55;19.10;99.90
44047;DHT22;29713;-33.888;151.150;2023-04-29T03:58:23;19.00;99.90
44047;DHT22;29713;-33.888;151.150;2023-04-29T04:00:50;19.00;99.90
44047;DHT22;29713;-33.888;151.150;2023-04-29T04:03:17;19.00;99.90
44047;DHT22;29713;-33.888;151.150;2023-04-29T04:05:45;19.00;99.90
44047;DHT22;29713;-33.888;151.150;2023-04-29T04:08:13;19.00;99.90
44047;DHT22;29713;-33.888;151.150;2023-04-29T04:10:41;19.10;99.90
44047;DHT22;29713;-33.888;151.150;2023-04-29T04:13:08;19.10;99.90
44047;DHT22;29713;-33.888;151.150;2023-04-29T04:15:36;19.10;99.90
44047;DHT22;29713;-33.888;151.150;2023-04-29T04:18:03;19.10;99.90
44047;DHT22;29713;-33.888;151.150;2023-04-29T04:20:30;19.10;99.90
44047;DHT22;29713;-33.888;151.150;2023-04-29T04:22:58;19.10;99.90
44047;DHT22;29713;-33.888;151.150;2023-04-29T04:25:25;19.10;99.90
44047;DHT22;29713;-33.888;151.150;2023-04-29T04:27:53;19.10;99.90
44047;DHT22;29713;-33.888;151.150;2023-04-29T04:30:21;18.90;99.90
44047;DHT22;29713;-33.888;151.150;2023-04-29T04:32:48;18.90;99.90
44047;DHT22;29713;-33.888;151.150;2023-04-29T04:35:15;18.80;99.90
44047;DHT22;29713;-33.888;151.150;2023-04-29T04:37:44;18.80;99.90
44047;DHT22;29713;-33.888;151.150;2023-04-29T04:40:12;18.80;99.90
44047;DHT22;29713;-33.888;151.150;2023-04-29T04:42:39;18.80;99.90
44047;DHT22;29713;-33.888;151.150;2023-04-29T04:45:07;18.80;99.90
44047;DHT22;29713;-33.888;151.150;2023-04-29T04:47:38;18.90;99.90
44047;DHT22;29713;-33.888;151.150;2023-04-29T04:50:07;18.90;99.90
44047;DHT22;29713;-33.888;151.150;2023-04-29T04:52:35;18.90;99.90
44047;DHT22;29713;-33.888;151.150;2023-04-29T04:55:02;18.90;99.90
44047;DHT22;29713;-33.888;151.150;2023-04-29T04:57:30;19.00;99.90
44047;DHT22;29713;-33.888;151.150;2023-04-29T04:59:57;19.10;99.90
44047;DHT22;29713;-33.888;151.150;2023-04-29T05:02:24;19.10;99.90
44047;DHT22;29713;-33.888;151.150;2023-04-29T05:04:52;19.10;99.90
44047;DHT22;29713;-33.888;151.150;2023-04-29T05:07:19;19.10;99.90
44047;DHT22;29713;-33.888;151.150;2023-04-29T05:09:46;19.10;99.90
44047;DHT22;29713;-33.888;151.150;2023-04-29T05:12:14;19.10;99.90
44047;DHT22;29713;-33.888;151.150;2023-04-29T05:14:41;19.10;99.90
44047;DHT22;29713;-33.888;151.150;2023-04-29T05:17:09;19.10;99.90
44047;DHT22;29713;-33.888;151.150;2023-04-29T05:19:36;19.10;99.90
44047;DHT22;29713;-33.888;151.150;2023-04-29T05:22:04;19.10;99.90
44047;DHT22;29713;-33.888;151.150;2023-04-29T05:24:31;19.10;99.90
44047;DHT22;29713;-33.888;151.150;2023-04-29T05:26:58;19.10;99.90
44047;DHT22;29713;-33.888;151.150;2023-04-29T05:29:26;19.10;99.90
44047;DHT22;29713;-33.888;151.150;2023-04-29T05:31:56;19.10;99.90
44047;DHT22;29713;-33.888;151.150;2023-04-29T05:34:24;19.00;99.90
44047;DHT22;29713;-33.888;151.150;2023-04-29T05:36:52;19.00;99.90
44047;DHT22;29713;-33.888;151.150;2023-04-29T05:39:20;19.00;99.90
44047;DHT22;29713;-33.888;151.150;2023-04-29T05:41:48;19.00;99.90
44047;DHT22;29713;-33.888;151.150;2023-04-29T05:44:15;19.10;99.90
44047;DHT22;29713;-33.888;151.150;2023-04-29T05:46:43;19.00;99.90
44047;DHT22;29713;-33.888;151.150;2023-04-29T05:49:11;19.00;99.90
44047;DHT22;29713;-33.888;151.150;2023-04-29T05:51:39;18.90;99.90
44047;DHT22;29713;-33.888;151.150;2023-04-29T05:54:06;19.00;99.90
44047;DHT22;29713;-33.888;151.150;2023-04-29T05:56:33;19.00;99.90
44047;DHT22;29713;-33.888;151.150;2023-04-29T05:59:01;19.00;99.90
44047;DHT22;29713;-33.888;151.150;2023-04-29T06:01:28;19.00;99.90
44047;DHT22;29713;-33.888;151.150;2023-04-29T06:03:56;19.00;99.90
44047;DHT22;29713;-33.888;151.150;2023-04-29T06:06:24;18.90;99.90
44047;DHT22;29713;-33.888;151.150;2023-04-29T06:08:52;18.90;99.90
44047;DHT22;29713;-33.888;151.150;2023-04-29T06:11:19;18.90;99.90
44047;DHT22;29713;-33.888;151.150;2023-04-29T06:13:47;18.90;99.90
44047;DHT22;29713;-33.888;151.150;2023-04-29T06:16:15;18.90;99.90
44047;DHT22;29713;-33.888;151.150;2023-04-29T06:18:42;18.90;99.90
44047;DHT22;29713;-33.888;151.150;2023-04-29T06:21:10;18.90;99.90
44047;DHT22;29713;-33.888;151.150;2023-04-29T06:23:37;18.90;99.90
44047;DHT22;29713;-33.888;151.150;2023-04-29T06:26:04;18.90;99.90
44047;DHT22;29713;-33.888;151.150;2023-04-29T06:28:32;18.90;99.90
44047;DHT22;29713;-33.888;151.150;2023-04-29T06:31:00;18.90;99.90
44047;DHT22;29713;-33.888;151.150;2023-04-29T06:33:28;18.90;99.90
44047;DHT22;29713;-33.888;151.150;2023-04-29T06:35:56;18.90;99.90
44047;DHT22;29713;-33.888;151.150;2023-04-29T06:38:24;18.80;99.90
44047;DHT22;29713;-33.888;151.150;2023-04-29T06:40:51;18.80;99.90
44047;DHT22;29713;-33.888;151.150;2023-04-29T06:43:18;18.80;99.90
44047;DHT22;29713;-33.888;151.150;2023-04-29T06:45:46;18.80;99.90
44047;DHT22;29713;-33.888;151.150;2023-04-29T06:48:14;18.70;99.90
44047;DHT22;29713;-33.888;151.150;2023-04-29T06:50:49;18.70;99.90
44047;DHT22;29713;-33.888;151.150;2023-04-29T06:53:17;18.70;99.90
44047;DHT22;29713;-33.888;151.150;2023-04-29T06:55:44;18.70;99.90
44047;DHT22;29713;-33.888;151.150;2023-04-29T06:58:18;18.70;99.90
44047;DHT22;29713;-33.888;151.150;2023-04-29T07:00:49;18.80;99.90
44047;DHT22;29713;-33.888;151.150;2023-04-29T07:03:17;18.70;99.90
44047;DHT22;29713;-33.888;151.150;2023-04-29T07:05:45;18.80;99.90
44047;DHT22;29713;-33.888;151.150;2023-04-29T07:08:13;18.80;99.90
44047;DHT22;29713;-33.888;151.150;2023-04-29T07:10:42;18.80;99.90
44047;DHT22;29713;-33.888;151.150;2023-04-29T07:13:09;18.70;99.90
44047;DHT22;29713;-33.888;151.150;2023-04-29T07:15:37;18.70;99.90
44047;DHT22;29713;-33.888;151.150;2023-04-29T07:18:04;18.70;99.90
44047;DHT22;29713;-33.888;151.150;2023-04-29T07:20:35;18.70;99.90
44047;DHT22;29713;-33.888;151.150;2023-04-29T07:23:02;18.70;99.90
44047;DHT22;29713;-33.888;151.150;2023-04-29T07:25:29;18.60;99.90
44047;DHT22;29713;-33.888;151.150;2023-04-29T07:27:57;18.60;99.90
44047;DHT22;29713;-33.888;151.150;2023-04-29T07:30:24;18.60;99.90
44047;DHT22;29713;-33.888;151.150;2023-04-29T07:32:51;18.60;99.90
44047;DHT22;29713;-33.888;151.150;2023-04-29T07:35:19;18.50;99.90
44047;DHT22;29713;-33.888;151.150;2023-04-29T07:37:46;18.50;99.90
44047;DHT22;29713;-33.888;151.150;2023-04-29T07:40:14;18.50;99.90
44047;DHT22;29713;-33.888;151.150;2023-04-29T07:42:42;18.40;99.90
44047;DHT22;29713;-33.888;151.150;2023-04-29T07:45:09;18.40;99.90
44047;DHT22;29713;-33.888;151.150;2023-04-29T07:47:39;18.40;99.90
44047;DHT22;29713;-33.888;151.150;2023-04-29T07:50:06;18.40;99.90
44047;DHT22;29713;-33.888;151.150;2023-04-29T07:52:34;18.40;99.90
44047;DHT22;29713;-33.888;151.150;2023-04-29T07:55:01;18.40;99.90
44047;DHT22;29713;-33.888;151.150;2023-04-29T07:57:29;18.40;99.90
44047;DHT22;29713;-33.888;151.150;2023-04-29T07:59:56;18.50;99.90
44047;DHT22;29713;-33.888;151.150;2023-04-29T08:02:23;18.50;99.90
44047;DHT22;29713;-33.888;151.150;2023-04-29T08:04:51;18.50;99.90
44047;DHT22;29713;-33.888;151.150;2023-04-29T08:07:19;18.50;99.90
44047;DHT22;29713;-33.888;151.150;2023-04-29T08:09:46;18.40;99.90
44047;DHT22;29713;-33.888;151.150;2023-04-29T08:12:14;18.40;99.90
44047;DHT22;29713;-33.888;151.150;2023-04-29T08:14:41;18.40;99.90
44047;DHT22;29713;-33.888;151.150;2023-04-29T08:17:08;18.40;99.90
44047;DHT22;29713;-33.888;151.150;2023-04-29T08:19:36;18.40;99.90
44047;DHT22;29713;-33.888;151.150;2023-04-29T08:22:03;18.40;99.90
44047;DHT22;29713;-33.888;151.150;2023-04-29T08:24:31;18.40;99.90
44047;DHT22;29713;-33.888;151.150;2023-04-29T08:27:00;18.30;99.90
44047;DHT22;29713;-33.888;151.150;2023-04-29T08:29:30;18.30;99.90
44047;DHT22;29713;-33.888;151.150;2023-04-29T08:32:00;18.30;99.90
44047;DHT22;29713;-33.888;151.150;2023-04-29T08:34:28;18.30;99.90
44047;DHT22;29713;-33.888;151.150;2023-04-29T08:36:56;18.30;99.90
44047;DHT22;29713;-33.888;151.150;2023-04-29T08:39:24;18.40;99.90
44047;DHT22;29713;-33.888;151.150;2023-04-29T08:41:51;18.40;99.90
44047;DHT22;29713;-33.888;151.150;2023-04-29T08:44:20;18.40;99.90
44047;DHT22;29713;-33.888;151.150;2023-04-29T08:46:48;18.40;99.90
44047;DHT22;29713;-33.888;151.150;2023-04-29T08:49:16;18.40;99.90
44047;DHT22;29713;-33.888;151.150;2023-04-29T08:51:43;18.40;99.90
44047;DHT22;29713;-33.888;151.150;2023-04-29T08:54:11;18.40;99.90
44047;DHT22;29713;-33.888;151.150;2023-04-29T08:56:39;18.40;99.90
44047;DHT22;29713;-33.888;151.150;2023-04-29T08:59:08;18.40;99.90
44047;DHT22;29713;-33.888;151.150;2023-04-29T09:01:38;18.40;99.90
44047;DHT22;29713;-33.888;151.150;2023-04-29T09:07:01;18.40;99.90
44047;DHT22;29713;-33.888;151.150;2023-04-29T09:09:29;18.40;99.90
44047;DHT22;29713;-33.888;151.150;2023-04-29T09:11:58;18.40;99.90
44047;DHT22;29713;-33.888;151.150;2023-04-29T09:14:26;18.40;99.90
44047;DHT22;29713;-33.888;151.150;2023-04-29T09:16:54;18.40;99.90
44047;DHT22;29713;-33.888;151.150;2023-04-29T09:19:33;18.40;99.90
44047;DHT22;29713;-33.888;151.150;2023-04-29T09:22:04;18.40;99.90
44047;DHT22;29713;-33.888;151.150;2023-04-29T09:24:35;18.40;99.90
44047;DHT22;29713;-33.888;151.150;2023-04-29T09:27:03;18.40;99.90
44047;DHT22;29713;-33.888;151.150;2023-04-29T09:29:30;18.40;99.90
44047;DHT22;29713;-33.888;151.150;2023-04-29T09:31:59;18.40;99.90
44047;DHT22;29713;-33.888;151.150;2023-04-29T09:34:34;18.30;99.90
44047;DHT22;29713;-33.888;151.150;2023-04-29T09:37:03;18.40;99.90
44047;DHT22;29713;-33.888;151.150;2023-04-29T09:39:38;18.40;99.90
44047;DHT22;29713;-33.888;151.150;2023-04-29T09:42:05;18.40;99.90
44047;DHT22;29713;-33.888;151.150;2023-04-29T09:44:34;18.40;99.90
44047;DHT22;29713;-33.888;151.150;2023-04-29T09:47:04;18.50;99.90
44047;DHT22;29713;-33.888;151.150;2023-04-29T09:49:37;18.40;99.90
44047;DHT22;29713;-33.888;151.150;2023-04-29T09:54:38;18.40;99.90
44047;DHT22;29713;-33.888;151.150;2023-04-29T09:57:08;18.30;99.90
44047;DHT22;29713;-33.888;151.150;2023-04-29T09:59:37;18.30;99.90
44047;DHT22;29713;-33.888;151.150;2023-04-29T10:02:16;18.30;99.90
44047;DHT22;29713;-33.888;151.150;2023-04-29T10:04:56;18.30;99.90
44047;DHT22;29713;-33.888;151.150;2023-04-29T10:07:25;18.20;99.90
44047;DHT22;29713;-33.888;151.150;2023-04-29T10:09:54;18.20;99.90
44047;DHT22;29713;-33.888;151.150;2023-04-29T10:12:22;18.20;99.90
44047;DHT22;29713;-33.888;151.150;2023-04-29T10:15:03;18.20;99.90
44047;DHT22;29713;-33.888;151.150;2023-04-29T10:17:46;18.20;99.90
44047;DHT22;29713;-33.888;151.150;2023-04-29T10:20:23;18.20;99.90
44047;DHT22;29713;-33.888;151.150;2023-04-29T10:22:52;18.20;99.90
44047;DHT22;29713;-33.888;151.150;2023-04-29T10:25:25;18.20;99.90
44047;DHT22;29713;-33.888;151.150;2023-04-29T10:27:55;18.20;99.90
44047;DHT22;29713;-33.888;151.150;2023-04-29T10:30:22;18.20;99.90
44047;DHT22;29713;-33.888;151.150;2023-04-29T10:32:50;18.20;99.90
44047;DHT22;29713;-33.888;151.150;2023-04-29T10:35:19;18.20;99.90
44047;DHT22;29713;-33.888;151.150;2023-04-29T10:37:49;18.10;99.90
44047;DHT22;29713;-33.888;151.150;2023-04-29T10:40:39;18.10;99.90
44047;DHT22;29713;-33.888;151.150;2023-04-29T10:43:08;18.10;99.90
44047;DHT22;29713;-33.888;151.150;2023-04-29T10:45:35;18.00;99.90
44047;DHT22;29713;-33.888;151.150;2023-04-29T10:53:26;18.00;99.90
44047;DHT22;29713;-33.888;151.150;2023-04-29T10:56:02;18.00;99.90
44047;DHT22;29713;-33.888;151.150;2023-04-29T11:01:01;18.00;99.90
44047;DHT22;29713;-33.888;151.150;2023-04-29T11:03:46;17.90;99.90
44047;DHT22;29713;-33.888;151.150;2023-04-29T11:06:15;17.90;99.90
44047;DHT22;29713;-33.888;151.150;2023-04-29T11:08:42;17.90;99.90
44047;DHT22;29713;-33.888;151.150;2023-04-29T11:11:12;18.00;99.90
44047;DHT22;29713;-33.888;151.150;2023-04-29T11:13:45;18.00;99.90
44047;DHT22;29713;-33.888;151.150;2023-04-29T11:16:13;17.90;99.90
44047;DHT22;29713;-33.888;151.150;2023-04-29T11:19:13;18.00;99.90
44047;DHT22;29713;-33.888;151.150;2023-04-29T11:21:41;18.00;99.90
44047;DHT22;29713;-33.888;151.150;2023-04-29T11:24:10;18.00;99.90
44047;DHT22;29713;-33.888;151.150;2023-04-29T11:26:38;17.90;99.90
44047;DHT22;29713;-33.888;151.150;2023-04-29T11:29:07;18.00;99.90
44047;DHT22;29713;-33.888;151.150;2023-04-29T11:31:38;18.00;99.90
44047;DHT22;29713;-33.888;151.150;2023-04-29T11:34:05;18.00;99.90
44047;DHT22;29713;-33.888;151.150;2023-04-29T11:36:33;18.00;99.90
44047;DHT22;29713;-33.888;151.150;2023-04-29T11:39:02;18.00;99.90
44047;DHT22;29713;-33.888;151.150;2023-04-29T11:41:30;17.90;99.90
44047;DHT22;29713;-33.888;151.150;2023-04-29T11:44:00;17.90;99.90
44047;DHT22;29713;-33.888;151.150;2023-04-29T11:46:32;17.90;99.90
44047;DHT22;29713;-33.888;151.150;2023-04-29T11:49:00;17.90;99.90
44047;DHT22;29713;-33.888;151.150;2023-04-29T11:51:27;17.90;99.90
44047;DHT22;29713;-33.888;151.150;2023-04-29T11:53:56;17.90;99.90
44047;DHT22;29713;-33.888;151.150;2023-04-29T11:56:24;17.90;99.90
44047;DHT22;29713;-33.888;151.150;2023-04-29T11:58:56;17.80;99.90
44047;DHT22;29713;-33.888;151.150;2023-04-29T12:01:25;17.80;99.90
44047;DHT22;29713;-33.888;151.150;2023-04-29T12:03:57;17.80;99.90
44047;DHT22;29713;-33.888;151.150;2023-04-29T12:06:28;17.80;99.90
44047;DHT22;29713;-33.888;151.150;2023-04-29T12:08:58;17.80;99.90
44047;DHT22;29713;-33.888;151.150;2023-04-29T12:11:26;17.80;99.90
44047;DHT22;29713;-33.888;151.150;2023-04-29T12:13:55;17.80;99.90
44047;DHT22;29713;-33.888;151.150;2023-04-29T12:16:22;17.80;99.90
44047;DHT22;29713;-33.888;151.150;2023-04-29T12:18:51;17.80;99.90
44047;DHT22;29713;-33.888;151.150;2023-04-29T12:21:20;17.80;99.90
44047;DHT22;29713;-33.888;151.150;2023-04-29T12:23:48;17.80;99.90
44047;DHT22;29713;-33.888;151.150;2023-04-29T12:26:17;17.80;99.90
44047;DHT22;29713;-33.888;151.150;2023-04-29T12:28:48;17.80;99.90
44047;DHT22;29713;-33.888;151.150;2023-04-29T12:31:19;17.80;99.90
44047;DHT22;29713;-33.888;151.150;2023-04-29T12:33:48;17.70;99.90
44047;DHT22;29713;-33.888;151.150;2023-04-29T12:36:16;17.60;99.90
44047;DHT22;29713;-33.888;151.150;2023-04-29T12:38:45;17.70;99.90
44047;DHT22;29713;-33.888;151.150;2023-04-29T12:41:13;17.60;99.90
44047;DHT22;29713;-33.888;151.150;2023-04-29T12:43:42;17.60;99.90
44047;DHT22;29713;-33.888;151.150;2023-04-29T12:46:10;17.50;99.90
44047;DHT22;29713;-33.888;151.150;2023-04-29T12:48:39;17.50;99.90
44047;DHT22;29713;-33.888;151.150;2023-04-29T12:51:10;17.40;99.90
44047;DHT22;29713;-33.888;151.150;2023-04-29T12:53:38;17.30;99.90
44047;DHT22;29713;-33.888;151.150;2023-04-29T12:56:05;17.10;99.90
44047;DHT22;29713;-33.888;151.150;2023-04-29T12:58:33;17.00;99.90
44047;DHT22;29713;-33.888;151.150;2023-04-29T13:01:00;16.90;99.90
44047;DHT22;29713;-33.888;151.150;2023-04-29T13:03:28;16.70;99.90
44047;DHT22;29713;-33.888;151.150;2023-04-29T13:05:55;16.60;99.90
44047;DHT22;29713;-33.888;151.150;2023-04-29T13:08:22;16.50;99.90
44047;DHT22;29713;-33.888;151.150;2023-04-29T13:10:50;16.50;99.90
44047;DHT22;29713;-33.888;151.150;2023-04-29T13:13:17;16.40;99.90
44047;DHT22;29713;-33.888;151.150;2023-04-29T13:15:44;16.40;99.90
44047;DHT22;29713;-33.888;151.150;2023-04-29T13:18:12;16.40;99.90
44047;DHT22;29713;-33.888;151.150;2023-04-29T13:20:39;16.40;99.90
44047;DHT22;29713;-33.888;151.150;2023-04-29T13:23:06;16.40;99.90
44047;DHT22;29713;-33.888;151.150;2023-04-29T13:25:34;16.40;99.90
44047;DHT22;29713;-33.888;151.150;2023-04-29T13:28:01;16.40;99.90
44047;DHT22;29713;-33.888;151.150;2023-04-29T13:30:30;16.30;99.90
44047;DHT22;29713;-33.888;151.150;2023-04-29T13:32:58;16.30;99.90
44047;DHT22;29713;-33.888;151.150;2023-04-29T13:35:25;16.30;99.90
44047;DHT22;29713;-33.888;151.150;2023-04-29T13:37:53;16.20;99.90
44047;DHT22;29713;-33.888;151.150;2023-04-29T13:40:20;16.20;99.90
44047;DHT22;29713;-33.888;151.150;2023-04-29T13:42:48;16.20;99.90
44047;DHT22;29713;-33.888;151.150;2023-04-29T13:45:15;16.30;99.90
44047;DHT22;29713;-33.888;151.150;2023-04-29T13:47:42;16.30;99.90
44047;DHT22;29713;-33.888;151.150;2023-04-29T13:50:10;16.20;99.90
44047;DHT22;29713;-33.888;151.150;2023-04-29T13:52:38;16.10;99.90
44047;DHT22;29713;-33.888;151.150;2023-04-29T13:55:06;16.10;99.90
44047;DHT22;29713;-33.888;151.150;2023-04-29T13:57:33;16.10;99.90
44047;DHT22;29713;-33.888;151.150;2023-04-29T14:00:00;15.90;99.90
44047;DHT22;29713;-33.888;151.150;2023-04-29T14:02:28;15.90;99.90
44047;DHT22;29713;-33.888;151.150;2023-04-29T14:04:55;15.90;99.90
44047;DHT22;29713;-33.888;151.150;2023-04-29T14:07:22;15.90;99.90
44047;DHT22;29713;-33.888;151.150;2023-04-29T14:09:50;15.90;99.90
44047;DHT22;29713;-33.888;151.150;2023-04-29T14:12:17;15.90;99.90
44047;DHT22;29713;-33.888;151.150;2023-04-29T14:14:44;15.90;99.90
44047;DHT22;29713;-33.888;151.150;2023-04-29T14:17:11;15.80;99.90
44047;DHT22;29713;-33.888;151.150;2023-04-29T14:19:39;15.80;99.90
44047;DHT22;29713;-33.888;151.150;2023-04-29T14:22:06;15.80;99.90
44047;DHT22;29713;-33.888;151.150;2023-04-29T14:24:34;15.80;99.90
44047;DHT22;29713;-33.888;151.150;2023-04-29T14:27:01;15.80;99.90
44047;DHT22;29713;-33.888;151.150;2023-04-29T14:29:28;15.80;99.90
44047;DHT22;29713;-33.888;151.150;2023-04-29T14:31:56;15.80;99.90
44047;DHT22;29713;-33.888;151.150;2023-04-29T14:34:23;15.80;99.90
44047;DHT22;29713;-33.888;151.150;2023-04-29T14:36:50;15.80;99.90
44047;DHT22;29713;-33.888;151.150;2023-04-29T14:39:18;15.80;99.90
44047;DHT22;29713;-33.888;151.150;2023-04-29T14:41:45;15.80;99.90
44047;DHT22;29713;-33.888;151.150;2023-04-29T14:44:14;15.80;99.90
44047;DHT22;29713;-33.888;151.150;2023-04-29T14:46:41;15.80;99.90
44047;DHT22;29713;-33.888;151.150;2023-04-29T14:49:08;15.80;99.90
44047;DHT22;29713;-33.888;151.150;2023-04-29T14:51:36;15.80;99.90
44047;DHT22;29713;-33.888;151.150;2023-04-29T14:54:03;15.80;99.90
44047;DHT22;29713;-33.888;151.150;2023-04-29T14:56:31;15.80;99.90
44047;DHT22;29713;-33.888;151.150;2023-04-29T14:58:58;15.90;99.90
44047;DHT22;29713;-33.888;151.150;2023-04-29T15:01:25;15.90;99.90
44047;DHT22;29713;-33.888;151.150;2023-04-29T15:03:53;15.90;99.90
44047;DHT22;29713;-33.888;151.150;2023-04-29T15:06:20;15.80;99.90
44047;DHT22;29713;-33.888;151.150;2023-04-29T15:08:48;15.80;99.90
44047;DHT22;29713;-33.888;151.150;2023-04-29T15:11:15;15.80;99.90
44047;DHT22;29713;-33.888;151.150;2023-04-29T15:13:42;15.80;99.90
44047;DHT22;29713;-33.888;151.150;2023-04-29T15:16:10;15.80;99.90
44047;DHT22;29713;-33.888;151.150;2023-04-29T15:18:37;15.80;99.90